Time;durP1;ratioP1;P1;durP2;ratioP2;P2;SDS_P1;SDS_P2;PMS_P1;PMS_P2;Temp;Humidity;BMP_temperature;BMP_pressure;BME280_temperature;BME280_humidity;BME280_pressure;Samples;Min_cycle;Max_cycle;Signal;HPM_P1;HPM_P2
2021/10/04 00:01:30;;;;;;;20.55;10.95;;;30.20;83.60;;;;;;5110570;28;20105;-51
2021/10/04 00:03:56;;;;;;;25.08;13.55;;;30.10;83.50;;;;;;5111118;28;20208;-44
2021/10/04 00:06:23;;;;;;;15.13;11.38;;;30.10;83.60;;;;;;5110723;28;20030;-50
2021/10/04 00:08:49;;;;;;;15.55;9.98;;;30.10;83.60;;;;;;5111049;28;20028;-51
2021/10/04 00:11:16;;;;;;;17.52;9.95;;;30.10;83.60;;;;;;5110200;28;20339;-51
2021/10/04 00:13:43;;;;;;;18.20;10.30;;;30.10;83.70;;;;;;5110672;28;20038;-46
2021/10/04 00:16:09;;;;;;;29.23;14.85;;;30.10;83.70;;;;;;5110472;28;20047;-48
2021/10/04 00:18:36;;;;;;;22.95;13.27;;;30.10;83.70;;;;;;5110791;28;20020;-51
2021/10/04 00:21:03;;;;;;;21.40;12.30;;;30.10;83.80;;;;;;5110469;28;20023;-49
2021/10/04 00:23:30;;;;;;;23.02;13.73;;;30.10;83.80;;;;;;5110504;28;20031;-52
2021/10/04 00:25:57;;;;;;;24.50;14.77;;;30.10;83.90;;;;;;5110371;28;20316;-48
2021/10/04 00:28:23;;;;;;;40.00;19.65;;;30.10;84.00;;;;;;5110370;28;20036;-50
2021/10/04 00:30:50;;;;;;;36.50;17.58;;;30.00;84.00;;;;;;5110127;28;20024;-46
2021/10/04 00:33:17;;;;;;;38.22;23.88;;;30.00;84.00;;;;;;5110052;28;20032;-53
2021/10/04 00:35:43;;;;;;;60.83;33.38;;;30.00;84.10;;;;;;5109050;28;20024;-53
2021/10/04 00:38:10;;;;;;;55.92;30.48;;;30.00;84.10;;;;;;5110298;28;20054;-46
2021/10/04 00:40:37;;;;;;;44.35;25.67;;;30.00;84.20;;;;;;5110164;28;20018;-50
2021/10/04 00:43:04;;;;;;;37.70;21.77;;;30.00;84.20;;;;;;5110298;28;20034;-48
2021/10/04 00:45:31;;;;;;;74.53;38.13;;;30.00;84.20;;;;;;5108764;28;20039;-50
2021/10/04 00:47:59;;;;;;;116.22;63.83;;;30.00;84.30;;;;;;5110357;28;20020;-47
2021/10/04 00:50:27;;;;;;;150.88;84.43;;;30.00;84.40;;;;;;5108951;28;20317;-43
2021/10/04 00:52:53;;;;;;;106.28;63.15;;;29.90;84.30;;;;;;5110020;28;20023;-51
2021/10/04 00:55:20;;;;;;;82.30;47.95;;;29.90;84.20;;;;;;5110172;28;20351;-51
2021/10/04 00:57:47;;;;;;;69.93;38.08;;;29.90;84.20;;;;;;5110182;28;20036;-54
2021/10/04 01:00:18;;;;;;;59.30;31.63;;;29.90;84.30;;;;;;5109931;28;20107;-47
2021/10/04 01:02:44;;;;;;;50.30;27.45;;;29.90;84.20;;;;;;5110040;28;20332;-49
2021/10/04 01:05:12;;;;;;;41.67;23.70;;;29.90;84.10;;;;;;5110155;28;20047;-48
2021/10/04 01:07:39;;;;;;;42.42;22.88;;;29.90;84.00;;;;;;5108075;28;20031;-50
2021/10/04 01:10:09;;;;;;;40.05;24.80;;;29.80;83.90;;;;;;5106808;28;20066;-47
2021/10/04 01:12:37;;;;;;;44.65;28.13;;;29.90;84.40;;;;;;5106637;28;20036;-49
2021/10/04 01:15:05;;;;;;;36.17;22.20;;;29.80;83.70;;;;;;5106607;28;20060;-45
2021/10/04 01:17:31;;;;;;;31.95;19.77;;;29.80;83.60;;;;;;5106725;28;20020;-45
2021/10/04 01:19:58;;;;;;;28.58;16.83;;;29.80;83.50;;;;;;5106757;28;20240;-44
2021/10/04 01:22:25;;;;;;;27.75;14.23;;;29.80;83.50;;;;;;5105368;28;20240;-49
2021/10/04 01:24:51;;;;;;;23.50;13.70;;;29.80;83.50;;;;;;5106656;28;20024;-51
2021/10/04 01:27:18;;;;;;;20.63;13.43;;;29.80;83.60;;;;;;5106578;28;20295;-51
2021/10/04 01:29:44;;;;;;;20.67;11.88;;;29.80;83.30;;;;;;5106421;28;20190;-48
2021/10/04 01:32:12;;;;;;;17.90;10.90;;;29.70;82.90;;;;;;5106709;28;20301;-52
2021/10/04 01:34:40;;;;;;;16.70;10.05;;;29.70;82.60;;;;;;5106947;28;20035;-51
2021/10/04 01:37:06;;;;;;;18.02;9.27;;;29.70;82.40;;;;;;5106223;28;20026;-49
2021/10/04 01:39:33;;;;;;;17.50;9.05;;;29.70;82.60;;;;;;5106823;28;20023;-51
2021/10/04 01:41:59;;;;;;;19.58;8.18;;;29.70;81.90;;;;;;5106343;28;20043;-46
2021/10/04 01:44:26;;;;;;;17.48;8.60;;;29.70;81.80;;;;;;5106532;28;20027;-49
2021/10/04 01:46:53;;;;;;;13.30;7.40;;;29.70;81.50;;;;;;5106423;28;20062;-51
2021/10/04 01:49:20;;;;;;;9.85;7.07;;;29.70;81.30;;;;;;5106505;28;20044;-49
2021/10/04 01:51:47;;;;;;;11.93;6.07;;;29.70;81.20;;;;;;5104962;28;20031;-45
2021/10/04 01:54:14;;;;;;;12.23;6.90;;;29.70;81.10;;;;;;5106362;28;20027;-49
2021/10/04 01:56:40;;;;;;;10.57;6.88;;;29.70;81.00;;;;;;5106021;28;20036;-50
2021/10/04 01:59:07;;;;;;;10.48;6.43;;;29.60;80.90;;;;;;5106012;28;20078;-44
2021/10/04 02:01:33;;;;;;;13.15;6.90;;;29.60;80.80;;;;;;5105668;28;20040;-43
2021/10/04 02:04:00;;;;;;;13.85;8.10;;;29.60;80.80;;;;;;5105780;28;20061;-43
2021/10/04 02:06:27;;;;;;;13.93;8.65;;;29.60;80.90;;;;;;5105650;28;20055;-49
2021/10/04 02:08:53;;;;;;;15.73;9.23;;;29.60;80.90;;;;;;5106195;28;20364;-49
2021/10/04 02:11:20;;;;;;;16.58;9.82;;;29.60;80.90;;;;;;5105603;28;20024;-49
2021/10/04 02:13:46;;;;;;;17.30;8.88;;;29.60;80.90;;;;;;5105712;28;20031;-47
2021/10/04 02:16:15;;;;;;;13.38;8.20;;;29.60;80.80;;;;;;5105750;28;20020;-50
2021/10/04 02:18:43;;;;;;;13.15;8.30;;;29.60;80.80;;;;;;5104157;28;20020;-53
2021/10/04 02:21:09;;;;;;;13.95;8.02;;;29.50;80.90;;;;;;5103672;28;20016;-57
2021/10/04 02:23:36;;;;;;;13.55;8.15;;;29.50;80.90;;;;;;5105558;28;20042;-49
2021/10/04 02:26:03;;;;;;;10.38;7.10;;;29.50;81.00;;;;;;5105340;28;20043;-48
2021/10/04 02:28:30;;;;;;;10.85;7.03;;;29.50;81.00;;;;;;5105522;28;20035;-51
2021/10/04 02:30:57;;;;;;;12.73;7.53;;;29.40;81.00;;;;;;5105594;28;20079;-50
2021/10/04 02:33:24;;;;;;;13.25;6.03;;;29.50;81.30;;;;;;5105329;28;20032;-51
2021/10/04 02:35:51;;;;;;;8.82;6.60;;;29.40;81.30;;;;;;5105208;28;20083;-49
2021/10/04 02:38:17;;;;;;;8.00;5.63;;;29.40;81.40;;;;;;5105324;28;20440;-50
2021/10/04 02:40:44;;;;;;;9.23;5.85;;;29.50;81.30;;;;;;5105167;28;20024;-52
2021/10/04 02:43:11;;;;;;;10.43;6.60;;;29.40;81.20;;;;;;5105351;28;20028;-57
2021/10/04 02:45:38;;;;;;;17.10;11.23;;;29.40;81.10;;;;;;5105229;28;20372;-45
2021/10/04 02:48:05;;;;;;;20.83;17.58;;;29.40;81.20;;;;;;5105367;28;20209;-54
2021/10/04 02:50:32;;;;;;;21.88;15.80;;;29.40;81.20;;;;;;5104938;28;20020;-50
2021/10/04 02:52:59;;;;;;;16.67;12.25;;;29.40;81.30;;;;;;5104804;28;20210;-47
2021/10/04 02:55:25;;;;;;;13.13;10.43;;;29.30;81.20;;;;;;5105025;28;20309;-49
2021/10/04 02:57:53;;;;;;;13.57;8.65;;;29.40;81.40;;;;;;5105047;28;20091;-53
2021/10/04 03:00:20;;;;;;;14.35;7.35;;;29.40;81.50;;;;;;5104563;28;20099;-53
2021/10/04 03:02:47;;;;;;;11.95;7.22;;;29.40;81.50;;;;;;5104816;28;20037;-55
2021/10/04 03:05:13;;;;;;;14.10;7.40;;;29.30;81.30;;;;;;5103537;28;20047;-55
2021/10/04 03:07:40;;;;;;;8.43;6.20;;;29.30;81.30;;;;;;5104479;28;20028;-50
2021/10/04 03:10:08;;;;;;;17.58;6.95;;;29.30;81.30;;;;;;5104604;28;20087;-51
2021/10/04 03:12:34;;;;;;;10.32;6.25;;;29.30;81.30;;;;;;5104485;28;20328;-52
2021/10/04 03:15:02;;;;;;;8.32;5.80;;;29.30;81.20;;;;;;5104417;28;20065;-47
2021/10/04 03:17:28;;;;;;;10.57;5.63;;;29.30;81.20;;;;;;5104533;28;20023;-47
2021/10/04 03:19:55;;;;;;;8.52;5.60;;;29.30;81.10;;;;;;5104434;28;20344;-48
2021/10/04 03:22:23;;;;;;;9.90;5.45;;;29.30;81.10;;;;;;5104274;28;20028;-51
2021/10/04 03:24:51;;;;;;;7.68;5.30;;;29.20;81.10;;;;;;5104482;28;20031;-49
2021/10/04 03:27:17;;;;;;;10.18;5.72;;;29.20;80.90;;;;;;5104408;28;20308;-48
2021/10/04 03:29:47;;;;;;;12.52;6.78;;;29.20;80.90;;;;;;5104324;28;20028;-50
2021/10/04 03:32:13;;;;;;;11.10;6.50;;;29.30;81.00;;;;;;5103690;28;20069;-44
2021/10/04 03:34:40;;;;;;;11.55;5.80;;;29.30;80.90;;;;;;5104065;28;20065;-51
2021/10/04 03:37:07;;;;;;;8.73;5.57;;;29.20;80.80;;;;;;5103960;28;20022;-55
2021/10/04 03:39:34;;;;;;;9.77;5.70;;;29.20;80.70;;;;;;5104943;28;20035;-45
2021/10/04 03:42:01;;;;;;;10.18;6.15;;;29.20;80.70;;;;;;5104100;28;20020;-49
2021/10/04 03:44:27;;;;;;;8.68;5.10;;;29.20;80.60;;;;;;5104316;28;20079;-56
2021/10/04 03:46:54;;;;;;;9.23;5.60;;;29.20;80.60;;;;;;5104063;28;20204;-46
2021/10/04 03:49:21;;;;;;;10.02;6.68;;;29.20;80.60;;;;;;5103810;28;20030;-54
2021/10/04 03:51:47;;;;;;;12.02;6.78;;;29.20;80.60;;;;;;5103861;28;20024;-53
2021/10/04 03:54:14;;;;;;;15.90;7.35;;;29.20;80.60;;;;;;5104301;28;20028;-54
2021/10/04 03:56:40;;;;;;;12.02;6.70;;;29.10;80.50;;;;;;5103922;28;20026;-52
2021/10/04 03:59:13;;;;;;;10.48;6.53;;;29.10;80.50;;;;;;5104174;28;20057;-52
2021/10/04 04:01:40;;;;;;;11.52;6.07;;;29.20;80.50;;;;;;5103766;28;20044;-52
2021/10/04 04:04:06;;;;;;;9.75;5.75;;;29.10;80.40;;;;;;5104368;28;20028;-57
2021/10/04 04:06:33;;;;;;;10.70;5.40;;;29.10;80.40;;;;;;5103868;28;20016;-52
2021/10/04 04:08:59;;;;;;;10.23;5.80;;;29.10;80.40;;;;;;5104287;28;20024;-52
2021/10/04 04:11:26;;;;;;;8.77;5.63;;;29.10;80.40;;;;;;5103868;28;20354;-58
2021/10/04 04:13:53;;;;;;;8.98;6.35;;;29.10;80.50;;;;;;5103952;28;20028;-52
2021/10/04 04:16:20;;;;;;;13.00;9.93;;;29.10;80.60;;;;;;5103887;28;20047;-51
2021/10/04 04:18:47;;;;;;;15.20;11.05;;;29.10;80.80;;;;;;5104105;28;20020;-52
2021/10/04 04:21:13;;;;;;;18.23;9.93;;;29.10;80.90;;;;;;5103693;28;20126;-51
2021/10/04 04:23:40;;;;;;;15.25;8.25;;;29.00;81.00;;;;;;5103888;28;20321;-51
2021/10/04 04:26:06;;;;;;;11.88;7.38;;;29.10;81.20;;;;;;5103921;28;20028;-54
2021/10/04 04:28:33;;;;;;;10.38;7.13;;;29.00;81.20;;;;;;5103812;28;20043;-52
2021/10/04 04:31:00;;;;;;;12.98;7.22;;;29.00;81.30;;;;;;5103730;28;20363;-52
2021/10/04 04:33:27;;;;;;;13.60;7.95;;;29.00;81.50;;;;;;5103535;28;20082;-57
2021/10/04 04:35:54;;;;;;;12.52;8.32;;;29.00;82.00;;;;;;5103498;28;20020;-55
2021/10/04 04:38:21;;;;;;;9.77;7.75;;;29.00;81.50;;;;;;5102799;28;20091;-51
2021/10/04 04:40:48;;;;;;;12.77;8.55;;;29.00;81.60;;;;;;5104001;28;20307;-49
2021/10/04 04:43:14;;;;;;;12.38;7.97;;;29.00;81.70;;;;;;5105083;28;20043;-52
2021/10/04 04:45:41;;;;;;;12.13;7.85;;;29.00;81.80;;;;;;5107421;28;20051;-48
2021/10/04 04:48:07;;;;;;;11.68;6.75;;;29.00;81.80;;;;;;5106344;28;20020;-48
2021/10/04 04:50:34;;;;;;;9.40;7.15;;;29.00;81.90;;;;;;5107148;28;20050;-50
2021/10/04 04:53:01;;;;;;;10.52;6.30;;;29.00;82.40;;;;;;5107770;28;20032;-47
2021/10/04 04:55:27;;;;;;;14.63;6.13;;;29.00;81.80;;;;;;5107203;28;20335;-52
2021/10/04 04:57:54;;;;;;;11.82;6.35;;;28.90;81.90;;;;;;5107283;28;20024;-51
2021/10/04 05:00:20;;;;;;;9.20;5.97;;;28.90;82.00;;;;;;5106882;28;20043;-53
2021/10/04 05:02:47;;;;;;;9.48;7.05;;;28.90;82.10;;;;;;5107127;28;20074;-53
2021/10/04 05:05:16;;;;;;;18.23;11.07;;;28.90;82.10;;;;;;5107077;28;20023;-47
2021/10/04 05:07:43;;;;;;;19.92;13.60;;;28.90;82.20;;;;;;5107132;28;20024;-48
2021/10/04 05:10:11;;;;;;;18.13;12.75;;;28.90;82.50;;;;;;5106958;28;20236;-47
2021/10/04 05:12:37;;;;;;;19.38;13.65;;;28.80;82.60;;;;;;5106787;28;20024;-48
2021/10/04 05:15:04;;;;;;;18.70;12.32;;;28.90;82.80;;;;;;5106781;28;20365;-48
2021/10/04 05:17:31;;;;;;;14.52;10.45;;;28.80;82.70;;;;;;5105800;28;20031;-55
2021/10/04 05:19:57;;;;;;;12.27;9.50;;;28.80;82.80;;;;;;5106795;28;20024;-51
2021/10/04 05:22:24;;;;;;;12.18;8.60;;;28.80;83.00;;;;;;5106531;28;20281;-51
2021/10/04 05:24:50;;;;;;;11.02;7.90;;;28.80;83.00;;;;;;5106647;28;20073;-52
2021/10/04 05:27:17;;;;;;;9.50;7.40;;;28.80;83.20;;;;;;5106668;28;20016;-53
2021/10/04 05:29:44;;;;;;;15.48;7.53;;;28.80;83.30;;;;;;5106947;28;20020;-51
2021/10/04 05:32:10;;;;;;;12.30;7.63;;;28.70;83.30;;;;;;5106476;28;20048;-50
2021/10/04 05:34:37;;;;;;;12.77;7.18;;;28.80;83.30;;;;;;5106997;28;20074;-49
2021/10/04 05:37:04;;;;;;;8.88;6.78;;;28.80;83.40;;;;;;5106591;28;20208;-52
2021/10/04 05:39:30;;;;;;;10.05;6.05;;;28.70;83.30;;;;;;5106905;28;20020;-53
2021/10/04 05:41:57;;;;;;;11.20;6.45;;;28.70;83.40;;;;;;5106403;28;20046;-50
2021/10/04 05:44:23;;;;;;;8.80;5.93;;;28.70;83.50;;;;;;5106638;28;20028;-47
2021/10/04 05:46:50;;;;;;;9.45;6.03;;;28.70;83.50;;;;;;5106306;28;20050;-42
2021/10/04 05:49:17;;;;;;;9.07;6.80;;;28.70;83.50;;;;;;5106632;28;20027;-47
2021/10/04 05:51:43;;;;;;;9.20;6.28;;;28.70;83.60;;;;;;5106056;28;20020;-43
2021/10/04 05:54:10;;;;;;;9.40;6.15;;;28.70;83.80;;;;;;5106209;28;20047;-45
2021/10/04 05:56:38;;;;;;;9.98;6.03;;;28.60;83.90;;;;;;5106092;28;20024;-49
2021/10/04 05:59:05;;;;;;;6.93;6.07;;;28.60;84.00;;;;;;5106263;28;20028;-52
2021/10/04 06:01:32;;;;;;;11.15;6.32;;;28.60;84.00;;;;;;5105758;28;20097;-49
2021/10/04 06:03:58;;;;;;;9.85;6.15;;;28.60;83.90;;;;;;5104893;28;20036;-50
2021/10/04 06:06:26;;;;;;;11.50;6.53;;;28.60;83.90;;;;;;5105824;28;20020;-50
2021/10/04 06:08:53;;;;;;;10.88;6.65;;;28.60;83.90;;;;;;5106153;28;20028;-51
2021/10/04 06:11:19;;;;;;;9.82;7.43;;;28.60;83.90;;;;;;5105814;28;20313;-44
2021/10/04 06:13:46;;;;;;;10.93;7.93;;;28.60;84.10;;;;;;5105806;28;20031;-45
2021/10/04 06:16:12;;;;;;;13.13;6.97;;;28.60;83.50;;;;;;5104415;28;20035;-44
2021/10/04 06:18:39;;;;;;;13.07;7.85;;;28.60;83.30;;;;;;5105603;28;20047;-45
2021/10/04 06:21:06;;;;;;;12.65;9.07;;;28.60;83.30;;;;;;5105545;28;20020;-48
2021/10/04 06:23:32;;;;;;;16.15;10.75;;;28.60;83.20;;;;;;5105776;28;20032;-48
2021/10/04 06:25:59;;;;;;;13.38;9.80;;;28.60;83.10;;;;;;5105463;28;20320;-42
2021/10/04 06:28:26;;;;;;;12.18;9.00;;;28.60;82.90;;;;;;5105727;28;20032;-51
2021/10/04 06:30:52;;;;;;;15.15;9.45;;;28.60;82.80;;;;;;5105306;28;20028;-49
2021/10/04 06:33:19;;;;;;;13.88;9.82;;;28.50;82.60;;;;;;5105473;28;20016;-52
2021/10/04 06:35:47;;;;;;;16.77;9.75;;;28.60;82.90;;;;;;5105160;28;20019;-51
2021/10/04 06:38:16;;;;;;;12.88;10.15;;;28.50;83.00;;;;;;5105332;28;20024;-49
2021/10/04 06:40:43;;;;;;;16.83;11.02;;;28.60;83.20;;;;;;5105203;28;20024;-48
2021/10/04 06:43:10;;;;;;;16.85;10.10;;;28.50;83.30;;;;;;5105429;28;20036;-53
2021/10/04 06:45:36;;;;;;;14.65;10.68;;;28.50;83.40;;;;;;5105010;28;20073;-51
2021/10/04 06:48:03;;;;;;;14.50;10.82;;;28.50;83.60;;;;;;5105165;28;20020;-48
2021/10/04 06:50:30;;;;;;;15.85;10.98;;;28.50;83.70;;;;;;5104977;28;20027;-51
2021/10/04 06:52:56;;;;;;;17.73;10.27;;;28.50;83.50;;;;;;5105060;28;20028;-51
2021/10/04 06:55:23;;;;;;;11.20;8.55;;;28.50;83.50;;;;;;5105063;28;20020;-47
2021/10/04 06:57:49;;;;;;;12.90;9.07;;;28.50;83.50;;;;;;5104970;28;20196;-50
2021/10/04 07:00:20;;;;;;;12.57;8.75;;;28.50;83.60;;;;;;5104616;28;20323;-48
2021/10/04 07:02:49;;;;;;;12.00;7.80;;;28.40;83.50;;;;;;5103688;28;20032;-49
2021/10/04 07:05:16;;;;;;;11.15;7.88;;;28.50;83.70;;;;;;5104278;28;20092;-51
2021/10/04 07:07:43;;;;;;;10.10;7.57;;;28.40;83.60;;;;;;5104806;28;20051;-48
2021/10/04 07:10:10;;;;;;;10.23;7.70;;;28.40;83.80;;;;;;5104692;28;20027;-50
2021/10/04 07:12:36;;;;;;;9.07;8.02;;;28.40;83.80;;;;;;5104515;28;20212;-53
2021/10/04 07:15:04;;;;;;;10.43;8.15;;;28.40;83.80;;;;;;5104430;28;20016;-54
2021/10/04 07:17:31;;;;;;;12.45;7.70;;;28.40;83.80;;;;;;5104525;28;20073;-52
2021/10/04 07:19:58;;;;;;;11.05;7.32;;;28.50;84.00;;;;;;5104556;28;20016;-49
2021/10/04 07:22:25;;;;;;;8.65;6.38;;;28.40;84.00;;;;;;5103189;28;20024;-50
2021/10/04 07:24:51;;;;;;;8.68;6.25;;;28.40;84.00;;;;;;5104455;28;20084;-41
2021/10/04 07:27:18;;;;;;;8.02;6.22;;;28.40;84.10;;;;;;5104554;28;20043;-41
2021/10/04 07:29:45;;;;;;;9.80;6.40;;;28.40;84.20;;;;;;5104266;28;20032;-42
2021/10/04 07:32:12;;;;;;;7.82;6.10;;;28.40;84.20;;;;;;5104313;28;20046;-44
2021/10/04 07:34:38;;;;;;;8.57;6.85;;;28.40;84.40;;;;;;5104759;28;20027;-47
2021/10/04 07:37:05;;;;;;;10.52;6.78;;;28.40;84.60;;;;;;5104179;28;20074;-50
2021/10/04 07:39:32;;;;;;;9.15;6.63;;;28.40;84.80;;;;;;5104781;28;20331;-49
2021/10/04 07:41:59;;;;;;;13.25;8.48;;;28.40;84.90;;;;;;5104219;28;20047;-45
2021/10/04 07:44:26;;;;;;;12.20;8.80;;;28.30;84.80;;;;;;5104447;28;20027;-53
2021/10/04 07:46:54;;;;;;;13.43;8.93;;;28.30;84.80;;;;;;5104262;28;20026;-51
2021/10/04 07:49:22;;;;;;;12.05;7.60;;;28.30;84.80;;;;;;5102907;28;20031;-50
2021/10/04 07:51:49;;;;;;;11.38;8.38;;;28.30;84.80;;;;;;5103873;28;20032;-50
2021/10/04 07:54:15;;;;;;;13.95;8.13;;;28.30;84.90;;;;;;5104371;28;20028;-52
2021/10/04 07:56:42;;;;;;;13.38;8.38;;;28.30;84.80;;;;;;5104065;28;20024;-50
2021/10/04 07:59:09;;;;;;;11.82;8.05;;;28.30;84.80;;;;;;5104278;28;20269;-47
2021/10/04 08:01:36;;;;;;;12.15;7.57;;;28.30;84.80;;;;;;5103832;28;20052;-51
2021/10/04 08:04:04;;;;;;;13.55;6.95;;;28.30;84.90;;;;;;5104359;28;20020;-44
2021/10/04 08:06:30;;;;;;;9.50;7.05;;;28.30;85.00;;;;;;5104067;28;20049;-44
2021/10/04 08:08:57;;;;;;;10.55;6.57;;;28.30;85.40;;;;;;5104300;28;20099;-46
2021/10/04 08:11:24;;;;;;;8.93;6.85;;;28.30;85.00;;;;;;5103873;28;20043;-49
2021/10/04 08:13:52;;;;;;;11.45;7.10;;;28.30;85.10;;;;;;5103920;28;20062;-48
2021/10/04 08:16:21;;;;;;;9.95;6.50;;;28.30;85.20;;;;;;5102747;28;20020;-43
2021/10/04 08:18:49;;;;;;;11.23;6.95;;;28.30;85.20;;;;;;5108223;28;20035;-50
2021/10/04 08:21:16;;;;;;;9.40;6.65;;;28.30;85.80;;;;;;5107794;28;20209;-46
2021/10/04 08:23:46;;;;;;;9.85;6.60;;;28.30;85.30;;;;;;5108127;28;20039;-42
2021/10/04 08:26:14;;;;;;;7.18;6.03;;;28.30;85.40;;;;;;5107792;28;20024;-45
2021/10/04 08:28:40;;;;;;;12.80;6.60;;;28.20;85.40;;;;;;5107967;28;20032;-46
2021/10/04 08:31:07;;;;;;;10.88;6.80;;;28.30;85.50;;;;;;5107739;28;20019;-42
2021/10/04 08:33:35;;;;;;;8.30;6.13;;;28.30;85.70;;;;;;5107830;28;20246;-42
2021/10/04 08:36:04;;;;;;;10.15;6.20;;;28.30;85.70;;;;;;5107521;28;20016;-48
2021/10/04 08:38:31;;;;;;;7.03;5.80;;;28.20;85.50;;;;;;5107779;28;20303;-47
2021/10/04 08:40:58;;;;;;;9.07;6.40;;;28.30;85.60;;;;;;5107559;28;20083;-44
2021/10/04 08:43:25;;;;;;;11.23;5.75;;;28.30;85.40;;;;;;5107562;28;20296;-43
2021/10/04 08:45:57;;;;;;;8.68;5.88;;;28.30;85.40;;;;;;5107450;28;20038;-44
2021/10/04 08:48:25;;;;;;;8.77;6.10;;;28.20;85.30;;;;;;5107562;28;20023;-44
2021/10/04 08:50:55;;;;;;;9.23;6.25;;;28.20;85.30;;;;;;5107325;28;20213;-45
2021/10/04 08:53:22;;;;;;;9.70;6.18;;;28.20;85.50;;;;;;5107422;28;20332;-47
2021/10/04 08:55:49;;;;;;;8.25;6.00;;;28.20;85.50;;;;;;5107482;28;20020;-48
2021/10/04 08:58:16;;;;;;;9.38;5.97;;;28.20;85.50;;;;;;5107466;28;20047;-44
2021/10/04 09:00:42;;;;;;;7.35;5.95;;;28.20;85.50;;;;;;5107000;28;20075;-43
2021/10/04 09:03:12;;;;;;;9.60;6.05;;;28.20;85.60;;;;;;5107279;28;20020;-45
2021/10/04 09:05:57;;;;;;;10.98;5.97;;;28.20;85.70;;;;;;5125825;28;20265;-44
2021/10/04 09:08:24;;;;;;;9.38;6.30;;;28.20;85.80;;;;;;5125678;28;20120;-47
2021/10/04 09:10:55;;;;;;;12.65;5.70;;;28.20;85.90;;;;;;5125547;28;20069;-46
2021/10/04 09:13:22;;;;;;;7.82;5.53;;;28.20;86.00;;;;;;5125452;28;20044;-48
2021/10/04 09:15:51;;;;;;;10.07;6.40;;;28.20;86.10;;;;;;5125471;28;20121;-56
2021/10/04 09:18:29;;;;;;;8.60;5.70;;;28.20;86.20;;;;;;5125403;28;20032;-48
2021/10/04 09:20:58;;;;;;;8.80;6.20;;;28.20;86.40;;;;;;5125526;28;20020;-48
2021/10/04 09:23:48;;;;;;;8.80;6.20;;;28.20;86.60;;;;;;5125163;28;20034;-53
2021/10/04 09:26:29;;;;;;;11.48;6.60;;;28.20;86.70;;;;;;5125360;28;20220;-47
2021/10/04 09:29:01;;;;;;;9.90;6.00;;;28.20;86.90;;;;;;5124495;28;20023;-50
2021/10/04 09:31:30;;;;;;;10.75;6.57;;;28.20;87.00;;;;;;5125231;28;20032;-52
2021/10/04 09:34:14;;;;;;;9.77;6.30;;;28.20;87.10;;;;;;5125154;28;20024;-53
2021/10/04 09:36:53;;;;;;;11.40;6.43;;;28.20;87.30;;;;;;5124941;28;20094;-52
2021/10/04 09:39:36;;;;;;;10.35;5.97;;;28.10;87.40;;;;;;5125021;28;20047;-49
2021/10/04 09:42:04;;;;;;;9.13;6.25;;;28.10;87.60;;;;;;5125013;28;20019;-52
2021/10/04 09:45:00;;;;;;;14.73;6.68;;;28.10;87.60;;;;;;5124822;28;20024;-48
2021/10/04 09:47:35;;;;;;;8.07;6.32;;;28.10;87.70;;;;;;5124840;28;20039;-54
2021/10/04 09:50:08;;;;;;;9.80;6.57;;;28.10;87.60;;;;;;5124745;28;20178;-54
2021/10/04 09:52:36;;;;;;;8.63;5.90;;;28.10;87.60;;;;;;5124742;28;20023;-51
2021/10/04 09:55:19;;;;;;;14.45;6.20;;;28.10;87.70;;;;;;5122396;28;20020;-50
2021/10/04 09:58:04;;;;;;;7.43;6.13;;;28.10;87.80;;;;;;5106136;28;20020;-51
2021/10/04 10:00:37;;;;;;;8.95;5.80;;;28.10;87.70;;;;;;5105853;28;20228;-50
2021/10/04 10:03:06;;;;;;;8.40;5.47;;;28.00;87.60;;;;;;5106097;28;20024;-51
2021/10/04 10:05:35;;;;;;;10.48;5.82;;;28.10;87.80;;;;;;5105815;28;20020;-47
2021/10/04 10:08:06;;;;;;;10.88;5.70;;;28.10;87.70;;;;;;5104801;28;20034;-53
2021/10/04 10:10:35;;;;;;;7.28;5.70;;;28.00;87.70;;;;;;5105728;28;20019;-53
2021/10/04 10:13:01;;;;;;;9.25;5.80;;;28.10;87.70;;;;;;5105813;28;20047;-46
2021/10/04 10:15:30;;;;;;;7.95;6.03;;;28.10;87.70;;;;;;5105713;28;20074;-43
2021/10/04 10:18:44;;;;;;;9.95;5.90;;;28.10;87.60;;;;;;5105430;28;20265;-47
2021/10/04 10:21:26;;;;;;;11.70;6.00;;;28.10;87.60;;;;;;5103741;28;20058;-45
2021/10/04 10:23:57;;;;;;;10.43;6.38;;;28.10;87.60;;;;;;5104285;28;20043;-48
2021/10/04 10:26:41;;;;;;;12.63;5.95;;;28.10;87.60;;;;;;5105304;28;20031;-48
2021/10/04 10:29:19;;;;;;;9.23;6.07;;;28.10;87.50;;;;;;5105962;28;20027;-49
2021/10/04 10:31:51;;;;;;;6.70;6.03;;;28.10;87.40;;;;;;5105147;28;20031;-50
2021/10/04 10:34:31;;;;;;;8.63;6.10;;;28.10;87.10;;;;;;5105818;28;20091;-44
2021/10/04 10:36:58;;;;;;;7.80;6.00;;;28.00;86.90;;;;;;5105154;28;20079;-47
2021/10/04 10:39:46;;;;;;;8.85;5.72;;;28.10;86.70;;;;;;5105652;28;20020;-51
2021/10/04 10:42:16;;;;;;;9.68;5.70;;;28.00;86.30;;;;;;5104954;28;20295;-46
2021/10/04 10:44:58;;;;;;;6.38;4.82;;;28.00;86.00;;;;;;5105668;28;20039;-53
2021/10/04 10:47:36;;;;;;;6.90;5.18;;;28.00;85.40;;;;;;5104925;28;20020;-52
2021/10/04 10:50:11;;;;;;;11.00;5.20;;;28.00;85.00;;;;;;5105005;28;20024;-48
2021/10/04 10:52:47;;;;;;;7.20;4.80;;;28.00;84.80;;;;;;5104910;28;20020;-53
2021/10/04 10:55:35;;;;;;;9.10;4.60;;;28.00;85.00;;;;;;5104891;28;20407;-49
2021/10/04 10:58:13;;;;;;;8.57;4.78;;;28.00;84.90;;;;;;5104787;28;20113;-47
2021/10/04 11:01:20;;;;;;;12.13;4.72;;;28.10;84.90;;;;;;5104705;28;20329;-48
2021/10/04 11:03:49;;;;;;;10.00;4.93;;;28.00;84.50;;;;;;5105019;28;20028;-47
2021/10/04 11:06:16;;;;;;;9.02;4.43;;;28.10;84.50;;;;;;5105032;28;20024;-52
2021/10/04 11:08:46;;;;;;;6.70;4.55;;;28.10;84.40;;;;;;5105037;28;20207;-50
2021/10/04 11:11:20;;;;;;;5.55;4.63;;;28.10;84.10;;;;;;5104738;28;20023;-45
2021/10/04 11:14:21;;;;;;;9.70;4.93;;;28.00;84.00;;;;;;5104696;28;20238;-52
2021/10/04 11:16:58;;;;;;;8.95;5.82;;;28.10;83.90;;;;;;5104600;28;20020;-50
2021/10/04 11:19:30;;;;;;;8.93;4.75;;;28.10;83.80;;;;;;5104993;28;20304;-55
2021/10/04 11:21:57;;;;;;;9.25;5.32;;;28.10;83.80;;;;;;5104553;28;20293;-53
2021/10/04 11:24:25;;;;;;;9.02;4.97;;;28.10;83.70;;;;;;5104791;28;20032;-53
2021/10/04 11:26:52;;;;;;;8.38;5.35;;;28.10;83.80;;;;;;5104745;28;20316;-54
2021/10/04 11:29:21;;;;;;;7.72;4.82;;;28.10;83.60;;;;;;5104818;28;20031;-53
2021/10/04 11:31:49;;;;;;;9.10;5.10;;;28.10;83.50;;;;;;5104219;28;20044;-53
2021/10/04 11:34:21;;;;;;;10.27;4.65;;;28.10;83.40;;;;;;5104575;28;20027;-54
2021/10/04 11:36:54;;;;;;;9.00;4.80;;;28.20;83.30;;;;;;5103158;28;20020;-53
2021/10/04 11:39:28;;;;;;;6.75;4.10;;;28.20;83.20;;;;;;5104687;28;20209;-47
2021/10/04 11:41:56;;;;;;;8.68;4.03;;;28.20;82.90;;;;;;5104205;28;20077;-44
2021/10/04 11:44:28;;;;;;;8.93;4.60;;;28.20;82.80;;;;;;5104442;28;20028;-44
2021/10/04 11:46:59;;;;;;;7.82;4.25;;;28.30;82.80;;;;;;5104182;28;20019;-47
2021/10/04 11:49:29;;;;;;;6.28;4.30;;;28.20;82.50;;;;;;5104425;28;20051;-50
2021/10/04 11:51:58;;;;;;;7.93;3.88;;;28.20;82.40;;;;;;5103748;28;20096;-49
2021/10/04 11:54:46;;;;;;;8.05;4.07;;;28.20;82.40;;;;;;5104276;28;20035;-44
2021/10/04 11:57:16;;;;;;;10.10;4.57;;;28.20;82.30;;;;;;5104229;28;20087;-42
2021/10/04 11:59:56;;;;;;;7.15;4.07;;;28.20;82.40;;;;;;5104521;28;20035;-43
2021/10/04 12:02:25;;;;;;;7.75;3.78;;;28.20;82.40;;;;;;5103638;28;20047;-42
2021/10/04 12:05:07;;;;;;;8.60;3.75;;;28.20;82.40;;;;;;5103954;28;20016;-43
2021/10/04 12:07:34;;;;;;;6.38;3.75;;;28.20;82.40;;;;;;5102652;28;20061;-49
2021/10/04 12:10:01;;;;;;;6.22;3.80;;;28.20;82.30;;;;;;5103933;28;20377;-47
2021/10/04 12:12:36;;;;;;;6.82;3.58;;;28.20;82.20;;;;;;5103773;28;20083;-43
2021/10/04 12:15:07;;;;;;;7.70;3.60;;;28.20;82.30;;;;;;5102737;28;20024;-52
2021/10/04 12:17:39;;;;;;;6.50;3.80;;;28.20;82.30;;;;;;5102794;28;20012;-44
2021/10/04 12:20:07;;;;;;;9.98;3.83;;;28.20;82.20;;;;;;5103655;28;20035;-49
2021/10/04 12:22:35;;;;;;;7.93;3.70;;;28.30;82.20;;;;;;5103708;28;20031;-54
2021/10/04 12:25:02;;;;;;;5.60;3.70;;;28.20;82.00;;;;;;5103704;28;20051;-51
2021/10/04 12:27:29;;;;;;;7.28;3.47;;;28.20;82.10;;;;;;5103539;28;20077;-51
2021/10/04 12:30:00;;;;;;;6.15;3.28;;;28.20;82.00;;;;;;5103727;28;20102;-51
2021/10/04 12:32:46;;;;;;;9.68;4.10;;;28.20;82.00;;;;;;5103509;28;20016;-54
2021/10/04 12:35:23;;;;;;;10.02;3.92;;;28.30;82.00;;;;;;5103593;28;20343;-53
2021/10/04 12:38:00;;;;;;;6.35;3.40;;;28.30;82.00;;;;;;5103679;28;20020;-48
2021/10/04 12:40:39;;;;;;;5.85;3.67;;;28.30;82.00;;;;;;5103542;28;20056;-50
2021/10/04 12:43:23;;;;;;;8.05;3.47;;;28.30;82.10;;;;;;5103564;28;20077;-47
2021/10/04 12:46:15;;;;;;;6.65;3.40;;;28.30;82.00;;;;;;5103569;28;20024;-42
2021/10/04 12:48:49;;;;;;;7.43;3.78;;;28.30;82.00;;;;;;5103278;28;20024;-45